createdAt,value
2024-03-02T00:01:59.701Z,97180.72
2024-03-02T00:04:15.350Z,97183.81
2024-03-02T00:06:30.414Z,97186.16
2024-03-02T00:08:45.419Z,97189.59
2024-03-02T00:11:06.386Z,97192.22
2024-03-02T00:13:15.465Z,97196.53
2024-03-02T00:15:56.433Z,97189.22
2024-03-02T00:18:06.234Z,97201.34
2024-03-02T00:20:31.448Z,97207.16
2024-03-02T00:22:51.525Z,97199.34
2024-03-02T00:25:13.322Z,97200.16
2024-03-02T00:27:26.436Z,97200.03
2024-03-02T00:29:50.350Z,97198.31
2024-03-02T00:32:06.531Z,97198.59
2024-03-02T00:34:35.275Z,97197.47
2024-03-02T00:36:57.381Z,97207.97
2024-03-02T00:39:19.547Z,97199.06
2024-03-02T00:41:47.821Z,97194.50
2024-03-02T00:44:11.405Z,97194.75
2024-03-02T00:46:20.741Z,97193.75
2024-03-02T00:48:45.368Z,97189.59
2024-03-02T00:51:00.427Z,97199.94
2024-03-02T00:53:22.322Z,97196.84
2024-03-02T00:55:37.460Z,97193.75
2024-03-02T00:57:59.374Z,97193.31
2024-03-02T01:00:16.539Z,97194.38
2024-03-02T01:02:31.371Z,97201.22
2024-03-02T01:04:53.293Z,97200.59
2024-03-02T01:07:01.777Z,97196.25
2024-03-02T01:09:23.400Z,97190.84
2024-03-02T01:11:31.650Z,97181.03
2024-03-02T01:13:53.706Z,97183.31
2024-03-02T01:16:10.326Z,97179.88
2024-03-02T01:18:25.715Z,97175.16
2024-03-02T01:20:41.277Z,97171.03
2024-03-02T01:22:56.733Z,97171.03
2024-03-02T01:25:11.332Z,97173.47
2024-03-02T01:27:33.288Z,97168.41
2024-03-02T01:29:41.655Z,97159.72
2024-03-02T01:32:03.292Z,97171.31
2024-03-02T01:34:18.269Z,97171.22
2024-03-02T01:36:40.328Z,97163.38
2024-03-02T01:38:48.685Z,97159.31
2024-03-02T01:41:10.300Z,97164.72
2024-03-02T01:43:25.318Z,97161.59
2024-03-02T01:45:40.668Z,97155.88
2024-03-02T01:47:56.292Z,97158.03
2024-03-02T01:50:12.581Z,97165.06
2024-03-02T01:52:27.313Z,97158.16
2024-03-02T01:54:49.364Z,97161.44
2024-03-02T01:56:57.671Z,97153.94
2024-03-02T01:59:21.299Z,97154.88
2024-03-02T02:01:29.758Z,97162.66
2024-03-02T02:03:51.333Z,97160.97
2024-03-02T02:06:06.501Z,97159.53
2024-03-02T02:08:21.622Z,97156.00
2024-03-02T02:10:36.258Z,97164.59
2024-03-02T02:12:51.441Z,97149.03
2024-03-02T02:15:06.368Z,97146.06
2024-03-02T02:17:28.306Z,97148.44
2024-03-02T02:19:50.519Z,97143.50
2024-03-02T02:22:06.420Z,97157.13
2024-03-02T02:24:35.305Z,97151.47
2024-03-02T02:26:57.446Z,97148.81
2024-03-02T02:29:06.751Z,97150.41
2024-03-02T02:31:28.330Z,97154.47
2024-03-02T02:33:36.414Z,97143.69
2024-03-02T02:35:58.427Z,97148.38
2024-03-02T02:38:14.263Z,97150.25
2024-03-02T02:40:43.279Z,97142.19
2024-03-02T02:43:07.396Z,97143.72
2024-03-02T02:45:16.795Z,97147.25
2024-03-02T02:47:41.395Z,97142.56
2024-03-02T02:49:57.321Z,97145.50
2024-03-02T02:52:26.309Z,97148.81
2024-03-02T02:54:48.313Z,97149.00
2024-03-02T02:56:56.513Z,97144.38
2024-03-02T02:59:18.321Z,97130.81
2024-03-02T03:01:33.382Z,97142.13
2024-03-02T03:03:55.366Z,97141.34
2024-03-02T03:06:10.318Z,97138.81
2024-03-02T03:08:39.419Z,97139.81
2024-03-02T03:11:01.315Z,97147.81
2024-03-02T03:13:09.560Z,97151.81
2024-03-02T03:15:31.335Z,97148.03
2024-03-02T03:17:39.487Z,97151.41
2024-03-02T03:20:01.397Z,97150.38
2024-03-02T03:22:16.857Z,97154.34
2024-03-02T03:24:38.279Z,97146.84
2024-03-02T03:26:53.295Z,97154.56
2024-03-02T03:29:22.301Z,97154.31
2024-03-02T03:31:44.259Z,97151.47
2024-03-02T03:33:52.461Z,97157.22
2024-03-02T03:36:14.314Z,97152.13
2024-03-02T03:38:22.374Z,97154.16
2024-03-02T03:40:51.258Z,97154.31
2024-03-02T03:43:07.001Z,97151.78
2024-03-02T03:45:29.258Z,97141.72
2024-03-02T03:47:44.524Z,97139.72
2024-03-02T03:49:59.373Z,97130.47
2024-03-02T03:52:08.064Z,97136.13
2024-03-02T03:54:23.337Z,97137.44
2024-03-02T03:56:31.575Z,97127.97
2024-03-02T03:58:46.504Z,97128.09
2024-03-02T04:01:01.672Z,97133.22
2024-03-02T04:03:16.401Z,97134.91
2024-03-02T04:05:31.601Z,97130.75
2024-03-02T04:07:48.602Z,97134.78
2024-03-02T04:10:11.348Z,97133.19
2024-03-02T04:12:33.268Z,97144.31
2024-03-02T04:14:55.316Z,97144.72
2024-03-02T04:17:10.367Z,97135.66
2024-03-02T04:19:32.246Z,97136.19
2024-03-02T04:21:47.469Z,97137.63
2024-03-02T04:24:16.240Z,97135.13
2024-03-02T04:26:45.223Z,97134.28
2024-03-02T04:29:07.391Z,97135.84
2024-03-02T04:31:22.470Z,97132.03
2024-03-02T04:33:51.388Z,97134.66
2024-03-02T04:36:16.335Z,97145.25
2024-03-02T04:38:24.658Z,97135.16
2024-03-02T04:40:53.335Z,97135.50
2024-03-02T04:43:10.733Z,97130.72
2024-03-02T04:45:32.413Z,97136.53
2024-03-02T04:47:54.341Z,97142.28
2024-03-02T04:50:02.329Z,97142.19
2024-03-02T04:52:25.372Z,97147.28
2024-03-02T04:54:42.360Z,97144.75
2024-03-02T04:57:11.213Z,97153.94
2024-03-02T04:59:33.327Z,97149.16
2024-03-02T05:01:41.390Z,97160.19
2024-03-02T05:04:04.506Z,97158.09
2024-03-02T05:06:13.544Z,97159.72
2024-03-02T05:08:35.233Z,97157.56
2024-03-02T05:10:43.368Z,97160.69
2024-03-02T05:13:06.641Z,97160.84
2024-03-02T05:15:15.351Z,97162.59
2024-03-02T05:17:37.251Z,97166.03
2024-03-02T05:19:52.232Z,97166.47
2024-03-02T05:22:21.207Z,97171.16
2024-03-02T05:24:43.310Z,97167.09
2024-03-02T05:26:58.541Z,97164.16
2024-03-02T05:29:20.297Z,97169.84
2024-03-02T05:31:28.586Z,97173.47
2024-03-02T05:33:53.937Z,97175.50
2024-03-02T05:36:06.009Z,97182.75
2024-03-02T05:38:29.346Z,97187.00
2024-03-02T05:40:37.396Z,97181.25
2024-03-02T05:42:59.469Z,97187.97
2024-03-02T05:45:15.287Z,97193.00
2024-03-02T05:47:44.302Z,97185.41
2024-03-02T05:50:06.307Z,97177.94
2024-03-02T05:52:14.349Z,97184.97
2024-03-02T05:54:36.282Z,97190.91
2024-03-02T05:56:44.538Z,97192.81
2024-03-02T05:59:21.429Z,97182.88
2024-03-02T06:01:30.027Z,97190.44
2024-03-02T06:03:52.277Z,97195.13
2024-03-02T06:06:01.009Z,97196.59
2024-03-02T06:08:23.518Z,97208.28
2024-03-02T06:10:32.363Z,97192.03
2024-03-02T06:12:54.242Z,97199.41
2024-03-02T06:15:09.330Z,97201.19
2024-03-02T06:17:38.224Z,97212.50
2024-03-02T06:20:00.361Z,97201.94
2024-03-02T06:22:11.606Z,97203.09
2024-03-02T06:24:34.333Z,97195.69
2024-03-02T06:26:42.793Z,97195.69
2024-03-02T06:29:04.353Z,97191.66
2024-03-02T06:31:20.371Z,97194.50
2024-03-02T06:33:42.297Z,97199.47
2024-03-02T06:35:50.617Z,97194.94
2024-03-02T06:38:12.228Z,97192.69
2024-03-02T06:40:27.218Z,97193.84
2024-03-02T06:42:56.324Z,97192.84
2024-03-02T06:45:18.347Z,97192.75
2024-03-02T06:47:26.429Z,97186.09
2024-03-02T06:49:48.309Z,97200.31
2024-03-02T06:52:03.340Z,97200.31
2024-03-02T06:54:25.296Z,97190.09
2024-03-02T06:56:34.634Z,97195.88
2024-03-02T06:58:56.296Z,97191.66
2024-03-02T07:01:04.543Z,97198.41
2024-03-02T07:03:26.389Z,97215.03
2024-03-02T07:05:41.250Z,97206.53
2024-03-02T07:08:10.212Z,97208.72
2024-03-02T07:10:32.249Z,97219.16
2024-03-02T07:12:41.437Z,97211.44
2024-03-02T07:15:12.421Z,97211.06
2024-03-02T07:17:21.417Z,97214.13
2024-03-02T07:19:43.305Z,97214.38
2024-03-02T07:21:51.386Z,97213.69
2024-03-02T07:24:14.322Z,97219.31
2024-03-02T07:28:50.294Z,97228.97
2024-03-02T07:31:08.573Z,97233.56
2024-03-02T07:33:30.201Z,97229.53
2024-03-02T07:35:45.320Z,97223.16
2024-03-02T07:38:14.272Z,97224.66
2024-03-02T07:40:36.328Z,97223.25
2024-03-02T07:42:46.665Z,97212.56
2024-03-02T07:45:08.231Z,97224.78
2024-03-02T07:47:17.362Z,97225.03
2024-03-02T07:49:39.271Z,97227.91
2024-03-02T07:51:48.308Z,97222.53
2024-03-02T07:54:10.204Z,97225.06
2024-03-02T07:56:23.504Z,97227.75
2024-03-02T07:58:45.273Z,97234.66
2024-03-02T08:01:01.402Z,97231.22
2024-03-02T08:03:30.328Z,97233.44
2024-03-02T08:05:52.233Z,97227.28
2024-03-02T08:08:01.464Z,97223.84
2024-03-02T08:10:24.400Z,97222.63
2024-03-02T08:12:33.387Z,97231.41
2024-03-02T08:14:55.378Z,97230.22
2024-03-02T08:17:04.853Z,97233.16
2024-03-02T08:19:26.278Z,97232.84
2024-03-02T08:21:43.224Z,97230.34
2024-03-02T08:24:12.249Z,97230.34
2024-03-02T08:26:36.217Z,97235.97
2024-03-02T08:28:51.382Z,97245.25
2024-03-02T08:31:06.271Z,97234.50
2024-03-02T08:33:21.403Z,97242.41
2024-03-02T08:35:36.242Z,97235.50
2024-03-02T08:37:58.327Z,97243.91
2024-03-02T08:40:08.586Z,97236.81
2024-03-02T08:42:30.312Z,97241.72
2024-03-02T08:44:45.357Z,97246.31
2024-03-02T08:47:01.608Z,97244.38
2024-03-02T08:49:17.260Z,97251.75
2024-03-02T08:51:33.193Z,97242.94
2024-03-02T08:53:48.284Z,97240.03
2024-03-02T08:56:03.551Z,97246.88
2024-03-02T08:58:18.216Z,97249.56
2024-03-02T09:00:40.423Z,97250.78
2024-03-02T09:02:48.952Z,97252.97
2024-03-02T09:05:11.267Z,97250.78
2024-03-02T09:07:26.231Z,97255.69
2024-03-02T09:09:48.231Z,97254.41
2024-03-02T09:11:59.241Z,97260.44
2024-03-02T09:14:22.212Z,97263.16
2024-03-02T09:16:38.254Z,97262.00
2024-03-02T09:18:53.379Z,97274.47
2024-03-02T09:21:08.237Z,97261.06
2024-03-02T09:23:23.321Z,97266.16
2024-03-02T09:25:38.256Z,97267.66
2024-03-02T09:27:53.354Z,97260.28
2024-03-02T09:30:08.197Z,97270.81
2024-03-02T09:32:24.925Z,97263.00
2024-03-02T09:34:47.278Z,97271.56
2024-03-02T09:36:55.317Z,97274.88
2024-03-02T09:39:17.269Z,97281.44
2024-03-02T09:41:34.266Z,97282.25
2024-03-02T09:43:56.290Z,97286.59
2024-03-02T09:46:05.116Z,97286.19
2024-03-02T09:48:28.254Z,97289.84
2024-03-02T09:50:44.240Z,97289.88
2024-03-02T09:53:14.242Z,97293.25
2024-03-02T09:55:36.279Z,97294.50
2024-03-02T09:57:44.333Z,97291.63
2024-03-02T10:00:06.309Z,97300.34
2024-03-02T10:02:15.322Z,97296.19
2024-03-02T10:04:36.991Z,97299.31
2024-03-02T10:06:52.282Z,97295.66
2024-03-02T10:09:09.228Z,97313.66
2024-03-02T10:11:30.901Z,97303.03
2024-03-02T10:13:53.193Z,97303.53
2024-03-02T10:16:13.266Z,97295.22
2024-03-02T10:18:42.299Z,97295.38
2024-03-02T10:20:50.566Z,97297.66
2024-03-02T10:23:25.220Z,97297.94
2024-03-02T10:25:47.819Z,97297.25
2024-03-02T10:28:17.213Z,97305.56
2024-03-02T10:30:25.593Z,97299.94
2024-03-02T10:32:48.242Z,97293.56
2024-03-02T10:35:03.263Z,97296.03
2024-03-02T10:37:19.484Z,97294.78
2024-03-02T10:39:34.215Z,97296.25
2024-03-02T10:41:56.192Z,97295.16
2024-03-02T10:44:25.231Z,97290.38
2024-03-02T10:46:47.646Z,97291.84
2024-03-02T10:48:56.411Z,97300.53
2024-03-02T10:51:18.192Z,97290.34
2024-03-02T10:53:34.247Z,97289.31
2024-03-02T10:56:12.344Z,97280.69
2024-03-02T10:58:39.332Z,97280.50
2024-03-02T11:01:01.305Z,97286.63
2024-03-02T11:03:24.220Z,97280.66
2024-03-02T11:05:55.268Z,97289.91
2024-03-02T11:08:20.601Z,97287.06
2024-03-02T11:10:45.434Z,97278.28
2024-03-02T11:13:10.260Z,97279.66
2024-03-02T11:15:34.312Z,97279.53
2024-03-02T11:17:48.892Z,97282.44
2024-03-02T11:20:06.039Z,97278.88
2024-03-02T11:22:23.159Z,97275.81
2024-03-02T11:24:41.289Z,97278.19
2024-03-02T11:26:52.532Z,97271.50
2024-03-02T11:29:15.192Z,97277.41
2024-03-02T11:31:23.610Z,97268.50
2024-03-02T11:33:45.298Z,97264.94
2024-03-02T11:36:00.284Z,97273.03
2024-03-02T11:38:15.289Z,97258.34
2024-03-02T11:40:30.236Z,97265.38
2024-03-02T11:42:46.331Z,97266.47
2024-03-02T11:45:04.232Z,97263.31
2024-03-02T11:47:21.363Z,97263.75
2024-03-02T11:49:55.253Z,97268.59
2024-03-02T11:52:12.419Z,97266.44
2024-03-02T11:54:38.238Z,97265.59
2024-03-02T11:56:46.284Z,97267.38
2024-03-02T11:59:09.196Z,97265.44
2024-03-02T12:01:25.453Z,97268.00
2024-03-02T12:03:54.260Z,97269.09
2024-03-02T12:06:23.184Z,97273.19
2024-03-02T12:08:46.187Z,97271.84
2024-03-02T12:11:09.507Z,97270.47
2024-03-02T12:13:31.180Z,97266.13
2024-03-02T12:15:44.397Z,97255.19
2024-03-02T12:18:08.221Z,97261.28
2024-03-02T12:20:27.165Z,97259.38
2024-03-02T12:22:56.202Z,97258.31
2024-03-02T12:25:18.215Z,97253.50
2024-03-02T12:27:26.270Z,97253.84
2024-03-02T12:29:48.248Z,97250.78
2024-03-02T12:31:57.296Z,97255.31
2024-03-02T12:34:24.405Z,97252.13
2024-03-02T12:36:33.335Z,97250.84
2024-03-02T12:38:48.709Z,97259.19
2024-03-02T12:41:04.417Z,97257.38
2024-03-02T12:43:20.375Z,97260.78
2024-03-02T12:45:28.647Z,97264.53
2024-03-02T12:47:51.192Z,97265.69
2024-03-02T12:50:00.421Z,97269.63
2024-03-02T12:52:22.943Z,97261.63
2024-03-02T12:54:38.267Z,97258.03
2024-03-02T12:56:55.225Z,97257.50
2024-03-02T12:59:10.198Z,97256.75
2024-03-02T13:01:25.560Z,97254.25
2024-03-02T13:03:44.277Z,97251.91
2024-03-02T13:05:59.775Z,97250.81
2024-03-02T13:08:15.200Z,97249.19
2024-03-02T13:10:37.199Z,97242.88
2024-03-02T13:12:46.360Z,97238.09
2024-03-02T13:15:08.234Z,97239.13
2024-03-02T13:17:23.341Z,97235.31
2024-03-02T13:19:38.396Z,97238.16
2024-03-02T13:21:53.224Z,97233.63
2024-03-02T13:24:15.195Z,97230.34
2024-03-02T13:26:23.566Z,97227.78
2024-03-02T13:28:45.260Z,97228.22
2024-03-02T13:30:53.824Z,97232.56
2024-03-02T13:33:16.305Z,97233.97
2024-03-02T13:35:24.886Z,97219.94
2024-03-02T13:37:47.153Z,97226.38
2024-03-02T13:40:02.279Z,97236.41
2024-03-02T13:42:18.342Z,97222.75
2024-03-02T13:44:33.410Z,97221.28
2024-03-02T13:46:48.325Z,97221.84
2024-03-02T13:49:03.552Z,97216.50
2024-03-02T13:51:18.342Z,97221.28
2024-03-02T13:53:33.238Z,97218.91
2024-03-02T13:55:48.447Z,97223.72
2024-03-02T13:58:04.391Z,97230.63
2024-03-02T14:00:20.365Z,97224.31
2024-03-02T14:02:35.212Z,97224.75
2024-03-02T14:05:04.159Z,97218.16
2024-03-02T14:07:33.237Z,97220.06
2024-03-02T14:09:55.272Z,97221.44
2024-03-02T14:12:04.461Z,97214.91
2024-03-02T14:14:26.189Z,97221.19
2024-03-02T14:16:35.354Z,97221.22
2024-03-02T14:18:57.374Z,97218.19
2024-03-02T14:21:13.234Z,97218.41
2024-03-02T14:23:42.262Z,97219.75
2024-03-02T14:26:07.401Z,97229.16
2024-03-02T14:28:36.891Z,97228.97
2024-03-02T14:30:59.439Z,97221.28
2024-03-02T14:33:14.977Z,97227.31
2024-03-02T14:35:30.248Z,97218.66
2024-03-02T14:37:52.326Z,97211.16
2024-03-02T14:40:07.301Z,97218.72
2024-03-02T14:42:29.197Z,97226.03
2024-03-02T14:44:37.579Z,97224.38
2024-03-02T14:47:03.204Z,97226.59
2024-03-02T14:49:12.154Z,97220.25
2024-03-02T14:51:34.222Z,97219.16
2024-03-02T14:53:50.589Z,97213.00
2024-03-02T14:56:06.241Z,97218.94
2024-03-02T14:58:21.328Z,97214.84
2024-03-02T15:00:36.345Z,97216.41
2024-03-02T15:02:51.693Z,97224.44
2024-03-02T15:05:20.300Z,97216.72
2024-03-02T15:07:49.226Z,97218.50
2024-03-02T15:10:11.459Z,97211.63
2024-03-02T15:12:26.271Z,97218.16
2024-03-02T15:14:55.160Z,97216.47
2024-03-02T15:17:17.253Z,97213.19
2024-03-02T15:19:25.373Z,97221.16
2024-03-02T15:21:47.242Z,97220.56
2024-03-02T15:23:55.259Z,97217.22
2024-03-02T15:26:17.241Z,97215.47
2024-03-02T15:28:25.315Z,97223.59
2024-03-02T15:30:47.201Z,97222.88
2024-03-02T15:32:55.351Z,97221.19
2024-03-02T15:35:18.213Z,97216.84
2024-03-02T15:37:34.201Z,97224.34
2024-03-02T15:39:49.912Z,97223.41
2024-03-02T15:42:13.160Z,97227.38
2024-03-02T15:44:21.555Z,97220.13
2024-03-02T15:46:43.240Z,97218.47
2024-03-02T15:48:51.782Z,97223.47
2024-03-02T15:51:13.203Z,97209.88
2024-03-02T15:53:28.236Z,97214.50
2024-03-02T15:55:43.279Z,97210.59
2024-03-02T15:57:58.267Z,97212.16
2024-03-02T16:00:14.352Z,97224.94
2024-03-02T16:02:29.197Z,97214.19
2024-03-02T16:04:51.295Z,97211.03
2024-03-02T16:06:59.767Z,97220.88
2024-03-02T16:09:22.179Z,97225.78
2024-03-02T16:11:37.326Z,97221.44
2024-03-02T16:13:52.662Z,97228.53
2024-03-02T16:16:07.303Z,97216.00
2024-03-02T16:18:29.263Z,97215.78
2024-03-02T16:20:44.301Z,97225.53
2024-03-02T16:22:59.308Z,97219.22
2024-03-02T16:25:14.319Z,97227.00
2024-03-02T16:27:29.477Z,97224.81
2024-03-02T16:29:45.178Z,97223.59
2024-03-02T16:32:02.008Z,97220.94
2024-03-02T16:34:18.268Z,97234.59
2024-03-02T16:36:36.099Z,97219.94
2024-03-02T16:38:58.270Z,97222.66
2024-03-02T16:41:06.326Z,97226.53
2024-03-02T16:43:28.194Z,97221.44
2024-03-02T16:45:36.454Z,97228.75
2024-03-02T16:47:59.182Z,97228.00
2024-03-02T16:50:19.359Z,97227.75
2024-03-02T16:52:48.161Z,97223.34
2024-03-02T16:55:11.207Z,97225.28
2024-03-02T16:57:20.294Z,97228.69
2024-03-02T16:59:42.164Z,97223.13
2024-03-02T17:01:57.210Z,97218.97
2024-03-02T17:04:26.244Z,97221.91
2024-03-02T17:06:48.303Z,97224.81
2024-03-02T17:08:56.318Z,97226.31
2024-03-02T17:11:18.348Z,97229.22
2024-03-02T17:13:34.222Z,97235.34
2024-03-02T17:15:57.270Z,97223.09
2024-03-02T17:18:12.306Z,97233.34
2024-03-02T17:20:27.155Z,97239.41
2024-03-02T17:22:49.257Z,97235.78
2024-03-02T17:24:57.574Z,97233.59
2024-03-02T17:27:19.171Z,97229.22
2024-03-02T17:29:34.298Z,97226.28
2024-03-02T17:31:49.418Z,97236.28
2024-03-02T17:34:04.448Z,97230.91
2024-03-02T17:36:26.219Z,97225.28
2024-03-02T17:38:41.251Z,97236.53
2024-03-02T17:41:04.229Z,97227.44
2024-03-02T17:43:13.385Z,97230.09
2024-03-02T17:45:35.349Z,97224.97
2024-03-02T17:47:43.597Z,97227.84
2024-03-02T17:50:05.201Z,97222.72
2024-03-02T17:52:34.557Z,97221.25
2024-03-02T17:55:03.481Z,97225.59
2024-03-02T17:57:32.352Z,97217.75
2024-03-02T17:59:54.411Z,97226.97
2024-03-02T18:02:04.061Z,97227.63
2024-03-02T18:04:33.237Z,97228.72
2024-03-02T18:07:06.251Z,97216.06
2024-03-02T18:09:28.305Z,97216.13
2024-03-02T18:11:36.445Z,97212.38
2024-03-02T18:13:59.138Z,97223.44
2024-03-02T18:16:16.497Z,97221.78
2024-03-02T18:18:45.207Z,97235.28
2024-03-02T18:21:07.276Z,97219.72
2024-03-02T18:23:16.411Z,97226.03
2024-03-02T18:25:38.120Z,97225.09
2024-03-02T18:27:53.446Z,97228.31
2024-03-02T18:30:18.194Z,97229.63
2024-03-02T18:32:34.154Z,97227.25
2024-03-02T18:34:49.259Z,97228.19
2024-03-02T18:37:11.371Z,97223.97
2024-03-02T18:39:19.574Z,97222.34
2024-03-02T18:41:41.305Z,97225.53
2024-03-02T18:44:11.238Z,97223.81
2024-03-02T18:46:40.206Z,97235.00
2024-03-02T18:48:55.211Z,97231.63
2024-03-02T18:51:10.644Z,97222.13
2024-03-02T18:53:32.921Z,97221.78
2024-03-02T18:55:48.237Z,97221.50
2024-03-02T18:58:11.304Z,97223.38
2024-03-02T19:00:20.176Z,97220.06
2024-03-02T19:02:42.543Z,97223.44
2024-03-02T19:04:59.161Z,97217.06
2024-03-02T19:07:21.220Z,97222.84
2024-03-02T19:09:29.644Z,97228.66
2024-03-02T19:11:51.418Z,97227.25
2024-03-02T19:13:59.496Z,97237.44
2024-03-02T19:16:25.235Z,97229.13
2024-03-02T19:18:40.266Z,97229.22
2024-03-02T19:20:55.262Z,97222.69
2024-03-02T19:23:14.793Z,97221.84
2024-03-02T19:25:33.333Z,97218.47
2024-03-02T19:27:48.144Z,97218.56
2024-03-02T19:30:12.460Z,97215.91
2024-03-02T19:32:23.222Z,97219.06
2024-03-02T19:34:45.225Z,97211.94
2024-03-02T19:37:00.276Z,97215.78
2024-03-02T19:39:17.097Z,97215.75
2024-03-02T19:41:32.403Z,97207.91
2024-03-02T19:43:54.109Z,97212.72
2024-03-02T19:46:02.708Z,97216.16
2024-03-02T19:48:18.511Z,97213.56
2024-03-02T19:50:33.344Z,97213.88
2024-03-02T19:52:48.133Z,97212.16
2024-03-02T19:55:03.277Z,97203.84
2024-03-02T19:57:32.335Z,97207.50
2024-03-02T19:59:55.224Z,97215.88
2024-03-02T20:02:03.584Z,97198.66
2024-03-02T20:04:32.287Z,97198.22
2024-03-02T20:07:01.141Z,97204.50
2024-03-02T20:09:23.186Z,97197.72
2024-03-02T20:11:39.337Z,97202.88
2024-03-02T20:13:54.256Z,97203.72
2024-03-02T20:16:09.183Z,97201.69
2024-03-02T20:18:24.359Z,97208.75
2024-03-02T20:20:39.135Z,97205.56
2024-03-02T20:22:54.338Z,97208.19
2024-03-02T20:25:12.328Z,97218.81
2024-03-02T20:27:27.880Z,97216.53
2024-03-02T20:29:43.124Z,97218.84
2024-03-02T20:32:06.264Z,97213.06
2024-03-02T20:34:23.246Z,97207.59
2024-03-02T20:36:41.471Z,97211.50
2024-03-02T20:38:57.273Z,97212.44
2024-03-02T20:41:12.266Z,97212.44
2024-03-02T20:43:27.191Z,97216.34
2024-03-02T20:45:37.103Z,97220.63
2024-03-02T20:47:59.221Z,97220.69
2024-03-02T20:50:08.177Z,97218.00
2024-03-02T20:52:30.345Z,97217.28
2024-03-02T20:54:38.663Z,97222.84
2024-03-02T20:57:00.245Z,97215.16
2024-03-02T20:59:16.326Z,97225.22
2024-03-02T21:01:31.326Z,97215.28
2024-03-02T21:03:48.333Z,97215.09
2024-03-02T21:06:17.257Z,97215.28
2024-03-02T21:08:39.202Z,97214.38
2024-03-02T21:10:55.191Z,97212.22
2024-03-02T21:13:24.226Z,97215.19
2024-03-02T21:15:46.173Z,97222.03
2024-03-02T21:17:54.438Z,97215.78
2024-03-02T21:20:16.180Z,97211.47
2024-03-02T21:22:24.416Z,97218.81
2024-03-02T21:24:46.134Z,97209.88
2024-03-02T21:27:01.202Z,97221.31
2024-03-02T21:30:01.274Z,97216.78
2024-03-02T21:32:18.280Z,97221.63
2024-03-02T21:34:47.344Z,97218.28
2024-03-02T21:37:12.301Z,97225.16
2024-03-02T21:39:31.843Z,97222.44
2024-03-02T21:41:59.409Z,97225.53
2024-03-02T21:44:19.124Z,97224.72
2024-03-02T21:46:45.495Z,97223.41
2024-03-02T21:48:54.495Z,97226.19
2024-03-02T21:51:23.258Z,97223.53
2024-03-02T21:53:49.356Z,97225.66
2024-03-02T21:56:18.301Z,97228.09
2024-03-02T21:58:41.958Z,97224.13
2024-03-02T22:00:50.831Z,97229.06
2024-03-02T22:06:22.498Z,97222.22
2024-03-02T22:08:37.205Z,97223.63
2024-03-02T22:10:52.297Z,97225.13
2024-03-02T22:13:10.297Z,97220.28
2024-03-02T22:15:25.135Z,97229.78
2024-03-02T22:17:33.316Z,97229.53
2024-03-02T22:19:55.185Z,97232.84
2024-03-02T22:22:04.640Z,97231.97
2024-03-02T22:24:26.179Z,97219.78
2024-03-02T22:26:34.411Z,97225.78
2024-03-02T22:28:56.268Z,97229.41
2024-03-02T22:31:11.201Z,97214.84
2024-03-02T22:33:33.325Z,97220.97
2024-03-02T22:35:49.178Z,97225.91
2024-03-02T22:38:19.121Z,97216.00
2024-03-02T22:40:41.154Z,97216.28
2024-03-02T22:42:49.258Z,97227.13
2024-03-02T22:45:12.342Z,97223.25
2024-03-02T22:47:21.209Z,97221.09
2024-03-02T22:49:43.090Z,97226.28
2024-03-02T22:51:58.259Z,97221.72
2024-03-02T22:54:20.195Z,97217.75
2024-03-02T22:56:28.331Z,97225.91
2024-03-02T22:58:50.165Z,97222.50
2024-03-02T23:01:02.783Z,97217.28
2024-03-02T23:03:26.157Z,97215.78
2024-03-02T23:05:42.247Z,97218.25
2024-03-02T23:08:11.312Z,97217.88
2024-03-02T23:10:33.179Z,97218.16
2024-03-02T23:12:50.295Z,97217.88
2024-03-02T23:15:05.361Z,97223.00
2024-03-02T23:17:20.253Z,97216.75
2024-03-02T23:19:35.326Z,97216.09
2024-03-02T23:21:50.273Z,97216.06
2024-03-02T23:23:59.402Z,97213.44
2024-03-02T23:26:21.364Z,97211.44
2024-03-02T23:28:29.501Z,97214.16
2024-03-02T23:30:51.289Z,97220.84
2024-03-02T23:33:00.414Z,97208.88
2024-03-02T23:35:22.331Z,97209.63
2024-03-02T23:37:38.213Z,97213.28
2024-03-02T23:40:13.143Z,97211.50
2024-03-02T23:42:36.223Z,97205.13
2024-03-02T23:44:45.208Z,97212.56
2024-03-02T23:47:07.175Z,97202.78
2024-03-02T23:49:31.232Z,97204.75
2024-03-02T23:52:00.220Z,97200.59
2024-03-02T23:54:22.222Z,97196.19
2024-03-02T23:56:32.114Z,97202.28
2024-03-02T23:58:54.204Z,97192.06
